メインページ
METAR-TAF:

METAR-TAF

空港 :

メヘラーバード国際空港

テヘラン, イラン

緯度: 35-41N, 経度: 051-21E, 海抜: 1204m

現時点の気象観測

当レポートは36分前の12:30(UTC)に作成
西/南西の風 4kt
気温 24°C
湿度 22%
気圧 1016 hPa
視程: 8000m
高度4500ftの雲はほとんどない

METAR: OIII 251230Z 24004KT 8000 FEW045 24/01 Q1016 A3001

時間: 17:36 (13:06 UTC)

予報

当レポートは2時間6分前の11:00(UTC)に作成
予報は25日の 12時(UTC)から 26日の 18時(UTC)まで有効
西の風 8kt
視程: 7000m
25日の 12時(UTC)から 25日の 15時(UTC)まで一時的に
西の風 18kt
高度3500ftの雲はほとんどない, 塔状積雲.
確率 30% :
25日の 15時(UTC)から 25日の 19時(UTC)まで一時的に
高度3500ftの雲はほとんどない, 積乱雲.
高度10000ftの雲は散在している
25日の 19時(UTC)から 25日の 21時(UTC)まで徐々に
北/北西の風 6kt
26日の 06時(UTC)から 26日の 07時(UTC)まで徐々に
の風 8kt
26日の 09時(UTC)から 26日の 10時(UTC)まで徐々に
西/南西の風 8kt
高度3500ftの雲はほとんどない, 積乱雲.
高度4000ftの雲は散在している
高度10000ftの千切れ雲あり
確率 40% :
26日の 11時(UTC)から 26日の 17時(UTC)まで一時的に
西の風 18kt

TAF: OIII 251100Z 2512/2618 26008KT 7000 NSC TEMPO 2512/2515 26018KT FEW035TCU PROB30 TEMPO 2515/2519 FEW035CB SCT100 BECMG 2519/2521 33006KT BECMG 2606/2607 18008KT BECMG 2609/2610 24008KT FEW035CB SCT040 BKN100 PROB40 TEMPO 2611/2617 27018KT

4,000以上の空港の気象観測と天気予報(METAR報とTAF報)

利用可能な観測所は地図上に黄色い丸と赤い丸で示す。

丸の上にカーソルを重ねると観測所名を参照できる。

次にクリックすると気象観測と天気予報を参照できる。

マップの切り替え:黒色「×」印の緑ボタンをクリックして拡大、「-」印の緑ボタンをクリックして縮小、緑色の三角印をクリックして隣りの地図に切り替え


METAR-TAF: